Crow, Oregon
Current Conditions -  °F | °C
As of 7:54 AM on Saturday 20 Dec 2014 (Local Time) from KEUG Reporting Station
Light Rain Light Rain  
Wind Chill: 44°   Ceiling: 5500
Heat Index: 49°   Visibility: 7mi
Dew Point: 46°   Wind: 13mph
Humidity: 90%   Direction: 180°S
Pressure: 29.77"   Gusts: NA
Location:  44.0685°N, 123.082°W
Report Text: KEUG 201554Z 18011KT 7SM -RA FEW040 BKN055 OVC065 09/08 A2977 RMK AO2 SLP083 P0010 T00940078
Loading
Personal Weather Stations






























Interactive Weather Map New forecast layout! Learn more

10-Day Weather Forecast

Advertisements
Track Severe Weather on mobile